createdAt,value
2022-08-20T00:00:20.452Z,4.63
2022-08-20T00:03:27.604Z,3.80
2022-08-20T00:06:30.610Z,4.40
2022-08-20T00:09:36.458Z,4.37
2022-08-20T00:12:45.173Z,4.30
2022-08-20T00:15:48.402Z,3.70
2022-08-20T00:18:51.855Z,4.10
2022-08-20T00:21:58.370Z,3.90
2022-08-20T00:25:03.041Z,3.03
2022-08-20T00:28:07.045Z,3.27
2022-08-20T00:31:12.191Z,3.27
2022-08-20T00:34:15.385Z,3.00
2022-08-20T00:37:18.439Z,3.10
2022-08-20T00:40:27.015Z,3.20
2022-08-20T00:43:34.525Z,3.00
2022-08-20T00:46:38.731Z,2.70
2022-08-20T00:49:41.987Z,3.37
2022-08-20T00:52:49.742Z,3.20
2022-08-20T00:55:54.664Z,3.27
2022-08-20T00:58:57.931Z,3.07
2022-08-20T01:02:02.983Z,3.30
2022-08-20T01:05:09.241Z,2.90
2022-08-20T01:08:12.900Z,2.80
2022-08-20T01:11:20.417Z,3.00
2022-08-20T01:14:31.805Z,3.00
2022-08-20T01:17:37.664Z,3.07
2022-08-20T01:20:43.725Z,2.90
2022-08-20T01:23:55.078Z,3.37
2022-08-20T01:27:04.295Z,3.40
2022-08-20T01:30:09.003Z,3.33
2022-08-20T01:33:12.375Z,3.97
2022-08-20T01:36:17.522Z,4.03
2022-08-20T01:39:23.867Z,4.03
2022-08-20T01:42:34.757Z,3.87
2022-08-20T01:45:40.019Z,4.03
2022-08-20T01:48:44.137Z,4.20
2022-08-20T01:51:47.467Z,4.20
2022-08-20T01:54:52.559Z,3.60
2022-08-20T01:57:58.042Z,3.90
2022-08-20T02:01:01.276Z,3.70
2022-08-20T02:04:07.565Z,3.90
2022-08-20T02:07:20.423Z,3.63
2022-08-20T02:10:23.968Z,3.60
2022-08-20T02:13:28.301Z,3.60
2022-08-20T02:16:34.547Z,3.40
2022-08-20T02:19:41.559Z,3.80
2022-08-20T02:22:49.864Z,3.87
2022-08-20T02:25:53.857Z,4.07
2022-08-20T02:29:01.304Z,3.60
2022-08-20T02:32:32.717Z,3.67
2022-08-20T02:35:29.587Z,3.70
2022-08-20T02:38:34.865Z,3.50
2022-08-20T02:41:39.337Z,3.80
2022-08-20T02:44:44.526Z,4.40
2022-08-20T02:47:48.095Z,5.17
2022-08-20T02:50:53.399Z,5.33
2022-08-20T02:53:56.406Z,6.93
2022-08-20T02:56:59.485Z,7.83
2022-08-20T03:00:06.247Z,7.30
2022-08-20T03:03:10.801Z,8.00
2022-08-20T03:06:15.067Z,9.63
2022-08-20T03:09:18.055Z,8.50
2022-08-20T03:12:21.051Z,8.93
2022-08-20T03:15:25.391Z,10.37
2022-08-20T03:18:37.170Z,8.93
2022-08-20T03:21:40.208Z,10.53
2022-08-20T03:24:43.199Z,9.67
2022-08-20T03:27:47.124Z,10.63
2022-08-20T03:30:59.396Z,11.87
2022-08-20T03:34:02.507Z,12.13
2022-08-20T03:37:05.571Z,10.87
2022-08-20T03:40:12.155Z,11.83
2022-08-20T03:43:15.224Z,13.30
2022-08-20T03:46:23.076Z,11.57
2022-08-20T03:49:26.729Z,12.77
2022-08-20T03:52:30.015Z,11.67
2022-08-20T03:55:33.245Z,12.07
2022-08-20T03:58:36.642Z,10.80
2022-08-20T04:01:46.055Z,11.97
2022-08-20T04:04:49.676Z,11.43
2022-08-20T04:07:53.011Z,9.93
2022-08-20T04:10:59.614Z,10.87
2022-08-20T04:14:02.585Z,10.40
2022-08-20T04:17:11.660Z,9.97
2022-08-20T04:20:19.011Z,9.93
2022-08-20T04:23:22.768Z,9.73
2022-08-20T04:26:25.846Z,8.83
2022-08-20T04:29:32.037Z,8.70
2022-08-20T04:32:37.047Z,9.83
2022-08-20T04:35:41.363Z,8.43
2022-08-20T04:38:49.697Z,8.00
2022-08-20T04:41:53.947Z,8.53
2022-08-20T04:44:56.929Z,7.63
2022-08-20T04:48:05.399Z,8.27
2022-08-20T04:51:09.508Z,8.37
2022-08-20T04:54:14.222Z,7.90
2022-08-20T04:57:17.219Z,7.40
2022-08-20T05:00:20.189Z,7.33
2022-08-20T05:03:25.237Z,8.17
2022-08-20T05:06:31.880Z,9.73
2022-08-20T05:09:43.843Z,9.73
2022-08-20T05:12:56.957Z,10.43
2022-08-20T05:16:01.946Z,10.63
2022-08-20T05:19:06.878Z,10.00
2022-08-20T05:22:10.081Z,10.30
2022-08-20T05:25:14.520Z,10.07
2022-08-20T05:28:21.343Z,9.03
2022-08-20T05:31:24.341Z,9.60
2022-08-20T05:34:37.030Z,10.20
2022-08-20T05:37:42.085Z,10.37
2022-08-20T05:40:46.359Z,9.97
2022-08-20T05:43:49.353Z,9.83
2022-08-20T05:46:54.698Z,8.83
2022-08-20T05:49:59.022Z,9.67
2022-08-20T05:53:02.439Z,9.77
2022-08-20T05:56:05.686Z,9.63
2022-08-20T05:59:09.904Z,9.90
2022-08-20T06:02:27.006Z,8.97
2022-08-20T06:05:31.357Z,9.87
2022-08-20T06:08:34.543Z,9.03
2022-08-20T06:11:37.718Z,10.20
2022-08-20T06:14:40.755Z,9.93
2022-08-20T06:17:43.767Z,8.90
2022-08-20T06:20:48.092Z,8.67
2022-08-20T06:23:56.722Z,8.23
2022-08-20T06:27:03.926Z,7.30
2022-08-20T06:30:08.412Z,8.63
2022-08-20T06:33:12.137Z,8.07
2022-08-20T06:36:18.864Z,8.47
2022-08-20T06:39:22.160Z,8.43
2022-08-20T06:42:25.148Z,9.30
2022-08-20T06:45:31.332Z,8.43
2022-08-20T06:48:34.750Z,7.80
2022-08-20T06:51:40.134Z,7.37
2022-08-20T06:54:44.606Z,6.63
2022-08-20T06:57:48.283Z,8.93
2022-08-20T07:00:51.388Z,7.33
2022-08-20T07:03:56.142Z,6.57
2022-08-20T07:07:00.727Z,5.43
2022-08-20T07:10:07.102Z,6.50
2022-08-20T07:13:10.265Z,5.73
2022-08-20T07:16:13.438Z,6.23
2022-08-20T07:19:16.560Z,6.20
2022-08-20T07:22:20.865Z,5.30
2022-08-20T07:25:24.242Z,4.67
2022-08-20T07:28:29.507Z,4.70
2022-08-20T07:31:49.913Z,4.60
2022-08-20T07:34:52.995Z,4.37
2022-08-20T07:37:57.416Z,3.57
2022-08-20T07:41:02.257Z,3.67
2022-08-20T07:44:05.877Z,3.23
2022-08-20T07:47:08.840Z,3.53
2022-08-20T07:50:14.730Z,3.57
2022-08-20T07:53:19.309Z,2.70
2022-08-20T07:56:24.701Z,3.27
2022-08-20T07:59:27.790Z,3.03
2022-08-20T08:02:30.771Z,2.80
2022-08-20T08:05:35.472Z,2.50
2022-08-20T08:08:41.247Z,2.50
2022-08-20T08:11:49.983Z,2.47
2022-08-20T08:14:54.423Z,2.20
2022-08-20T08:18:01.162Z,2.87
2022-08-20T08:21:05.395Z,2.60
2022-08-20T08:24:12.136Z,2.03
2022-08-20T08:27:18.316Z,2.20
2022-08-20T08:30:21.495Z,2.50
2022-08-20T08:33:32.395Z,2.30
2022-08-20T08:36:35.845Z,2.20
2022-08-20T08:39:40.244Z,2.20
2022-08-20T08:42:46.781Z,1.80
2022-08-20T08:45:58.953Z,2.20
2022-08-20T08:49:02.772Z,2.10
2022-08-20T08:52:14.665Z,1.90
2022-08-20T08:55:22.870Z,1.77
2022-08-20T08:58:26.608Z,1.80
2022-08-20T09:01:56.321Z,1.53
2022-08-20T09:04:56.507Z,1.60
2022-08-20T09:08:02.545Z,1.80
2022-08-20T09:11:08.637Z,1.90
2022-08-20T09:14:12.314Z,1.73
2022-08-20T09:17:15.766Z,1.70
2022-08-20T09:20:19.342Z,1.77
2022-08-20T09:23:22.350Z,1.83
2022-08-20T09:26:29.205Z,1.90
2022-08-20T09:29:33.158Z,1.90
2022-08-20T09:32:36.481Z,2.10
2022-08-20T09:35:40.887Z,2.40
2022-08-20T09:38:43.906Z,2.13
2022-08-20T09:41:48.378Z,2.07
2022-08-20T09:44:51.625Z,2.03
2022-08-20T09:47:55.215Z,2.30
2022-08-20T09:51:00.300Z,1.90
2022-08-20T09:54:03.377Z,2.03
2022-08-20T09:57:09.968Z,1.80
2022-08-20T10:00:13.735Z,1.80
2022-08-20T10:03:17.018Z,1.77
2022-08-20T10:06:20.895Z,1.43
2022-08-20T10:09:23.944Z,1.90
2022-08-20T10:12:28.302Z,2.47
2022-08-20T10:15:35.477Z,1.97
2022-08-20T10:18:38.507Z,2.20
2022-08-20T10:21:41.646Z,2.17
2022-08-20T10:24:44.754Z,1.73
2022-08-20T10:27:49.305Z,2.17
2022-08-20T10:30:52.328Z,2.07
2022-08-20T10:33:56.615Z,2.10
2022-08-20T10:37:00.013Z,2.20
2022-08-20T10:40:03.132Z,1.97
2022-08-20T10:43:07.534Z,2.60
2022-08-20T10:46:10.628Z,2.33
2022-08-20T10:49:13.737Z,1.97
2022-08-20T10:52:17.098Z,1.87
2022-08-20T10:55:20.373Z,1.73
2022-08-20T10:58:25.349Z,1.90
2022-08-20T11:01:32.562Z,2.10
2022-08-20T11:04:38.465Z,1.73
2022-08-20T11:07:55.356Z,2.30
2022-08-20T11:11:02.919Z,2.20
2022-08-20T11:14:07.242Z,2.27
2022-08-20T11:17:10.771Z,2.00
2022-08-20T11:20:16.543Z,1.97
2022-08-20T11:23:19.525Z,2.17
2022-08-20T11:26:24.941Z,1.97
2022-08-20T11:29:33.799Z,2.10
2022-08-20T11:32:37.569Z,1.60
2022-08-20T11:35:48.530Z,2.10
2022-08-20T11:38:53.016Z,1.70
2022-08-20T11:41:56.383Z,1.90
2022-08-20T11:45:00.711Z,2.03
2022-08-20T11:48:04.065Z,1.93
2022-08-20T11:51:07.356Z,1.90
2022-08-20T11:54:10.371Z,1.93
2022-08-20T11:57:19.933Z,1.67
2022-08-20T12:00:32.918Z,1.90
2022-08-20T12:03:37.062Z,1.80
2022-08-20T12:06:40.122Z,1.67
2022-08-20T12:09:51.175Z,1.70
2022-08-20T12:12:54.516Z,1.60
2022-08-20T12:15:59.249Z,1.87
2022-08-20T12:19:02.271Z,1.60
2022-08-20T12:22:25.049Z,1.60
2022-08-20T12:25:28.347Z,1.50
2022-08-20T12:28:32.010Z,1.60
2022-08-20T12:31:36.402Z,1.77
2022-08-20T12:34:41.946Z,1.30
2022-08-20T12:37:46.099Z,1.13
2022-08-20T12:40:50.216Z,1.63
2022-08-20T12:43:53.216Z,1.47
2022-08-20T12:47:08.896Z,1.57
2022-08-20T12:50:13.918Z,1.07
2022-08-20T12:53:17.188Z,1.37
2022-08-20T12:56:20.259Z,1.50
2022-08-20T12:59:25.954Z,1.30
2022-08-20T13:02:30.555Z,1.13
2022-08-20T13:05:34.783Z,1.43
2022-08-20T13:08:37.750Z,1.50
2022-08-20T13:11:40.843Z,1.40
2022-08-20T13:14:44.442Z,1.40
2022-08-20T13:17:52.149Z,1.80
2022-08-20T13:20:55.145Z,1.08
2022-08-20T13:23:58.170Z,1.40
2022-08-20T13:27:09.159Z,1.42
2022-08-20T13:30:15.229Z,1.60
2022-08-20T13:33:19.561Z,1.40
2022-08-20T13:36:22.621Z,1.50
2022-08-20T13:39:25.775Z,1.20
2022-08-20T13:42:28.906Z,1.50
2022-08-20T13:45:31.920Z,2.03
2022-08-20T13:48:36.324Z,1.50
2022-08-20T13:51:39.326Z,1.20
2022-08-20T13:54:42.336Z,1.27
2022-08-20T13:57:45.689Z,1.73
2022-08-20T14:00:48.842Z,1.57
2022-08-20T14:03:53.154Z,1.43
2022-08-20T14:06:56.147Z,1.20
2022-08-20T14:10:01.600Z,1.57
2022-08-20T14:13:05.683Z,1.03
2022-08-20T14:16:25.344Z,1.37
2022-08-20T14:19:32.027Z,1.27
2022-08-20T14:22:36.776Z,1.03
2022-08-20T14:25:40.110Z,1.43
2022-08-20T14:28:43.097Z,1.30
2022-08-20T14:31:46.109Z,1.43
2022-08-20T14:34:50.435Z,1.30
2022-08-20T14:37:56.476Z,1.20
2022-08-20T14:40:59.757Z,1.43
2022-08-20T14:44:05.284Z,1.20
2022-08-20T14:47:17.467Z,1.20
2022-08-20T14:50:26.035Z,1.23
2022-08-20T14:53:29.053Z,1.20
2022-08-20T14:56:32.065Z,1.10
2022-08-20T14:59:36.746Z,1.20
2022-08-20T15:02:40.256Z,1.20
2022-08-20T15:05:44.602Z,1.03
2022-08-20T15:08:47.613Z,0.93
2022-08-20T15:11:50.814Z,1.30
2022-08-20T15:14:53.909Z,1.20
2022-08-20T15:18:00.870Z,1.40
2022-08-20T15:21:05.273Z,1.70
2022-08-20T15:24:15.802Z,1.10
2022-08-20T15:27:26.088Z,1.10
2022-08-20T15:30:31.527Z,1.27
2022-08-20T15:33:34.602Z,1.10
2022-08-20T15:36:38.951Z,1.43
2022-08-20T15:39:45.465Z,1.20
2022-08-20T15:42:49.335Z,1.10
2022-08-20T15:45:52.430Z,1.13
2022-08-20T15:48:55.481Z,1.30
2022-08-20T15:51:59.847Z,1.47
2022-08-20T15:55:03.672Z,1.23
2022-08-20T15:58:13.229Z,1.10
2022-08-20T16:01:26.218Z,0.80
2022-08-20T16:05:02.159Z,0.93
2022-08-20T16:08:17.789Z,1.50
2022-08-20T16:11:30.227Z,1.33
2022-08-20T16:14:38.802Z,1.00
2022-08-20T16:17:47.574Z,1.00
2022-08-20T16:20:54.556Z,1.50
2022-08-20T16:23:59.262Z,1.10
2022-08-20T16:27:13.416Z,1.33
2022-08-20T16:30:21.757Z,1.07
2022-08-20T16:33:30.483Z,1.30
2022-08-20T16:36:38.498Z,1.10
2022-08-20T16:39:53.104Z,1.10
2022-08-20T16:42:59.666Z,1.23
2022-08-20T16:46:05.564Z,1.30
2022-08-20T16:49:13.383Z,1.00
2022-08-20T16:52:16.887Z,1.10
2022-08-20T16:55:24.601Z,1.33
2022-08-20T16:58:27.656Z,1.30
2022-08-20T17:01:30.847Z,1.40
2022-08-20T17:04:34.162Z,1.20
2022-08-20T17:07:46.157Z,1.60
2022-08-20T17:11:00.792Z,1.30
2022-08-20T17:14:10.522Z,1.30
2022-08-20T17:17:21.130Z,1.67
2022-08-20T17:20:28.039Z,1.10
2022-08-20T17:23:54.595Z,1.30
2022-08-20T17:27:04.316Z,1.10
2022-08-20T17:30:22.658Z,1.10
2022-08-20T17:33:32.406Z,1.10
2022-08-20T17:36:35.460Z,1.20
2022-08-20T17:39:48.520Z,1.10
2022-08-20T17:42:56.785Z,1.20
2022-08-20T17:46:03.814Z,1.40
2022-08-20T17:49:09.679Z,1.37
2022-08-20T17:52:17.657Z,1.13
2022-08-20T17:55:21.676Z,1.10
2022-08-20T17:58:36.706Z,1.40
2022-08-20T18:01:41.781Z,1.10
2022-08-20T18:04:46.573Z,1.30
2022-08-20T18:08:10.041Z,1.27
2022-08-20T18:11:20.174Z,1.20
2022-08-20T18:14:42.702Z,1.10
2022-08-20T18:18:04.962Z,1.10
2022-08-20T18:21:28.301Z,0.90
2022-08-20T18:24:39.493Z,1.20
2022-08-20T18:27:48.245Z,1.17
2022-08-20T18:30:57.138Z,1.50
2022-08-20T18:34:12.539Z,1.60
2022-08-20T18:37:25.998Z,1.27
2022-08-20T18:40:33.225Z,1.17
2022-08-20T18:43:36.734Z,1.40
2022-08-20T18:46:55.064Z,1.40
2022-08-20T18:50:06.535Z,1.27
2022-08-20T18:53:23.131Z,1.43
2022-08-20T18:56:38.091Z,1.43
2022-08-20T18:59:45.262Z,1.23
2022-08-20T19:02:56.691Z,1.50
2022-08-20T19:06:25.461Z,1.60
2022-08-20T19:09:47.064Z,2.00
2022-08-20T19:13:26.305Z,1.90
2022-08-20T19:16:34.998Z,1.30
2022-08-20T19:19:39.842Z,1.70
2022-08-20T19:22:44.194Z,1.70
2022-08-20T19:25:55.224Z,1.33
2022-08-20T19:29:02.241Z,1.70
2022-08-20T19:32:08.169Z,1.70
2022-08-20T19:35:18.892Z,1.40
2022-08-20T19:38:22.749Z,1.17
2022-08-20T19:41:31.503Z,1.70
2022-08-20T19:44:40.492Z,1.87
2022-08-20T19:47:55.375Z,1.50
2022-08-20T19:51:15.619Z,1.70
2022-08-20T19:54:23.721Z,1.63
2022-08-20T19:57:27.322Z,1.60
2022-08-20T20:00:38.570Z,1.33
2022-08-20T20:03:41.617Z,1.90
2022-08-20T20:06:48.107Z,1.80
2022-08-20T20:09:54.574Z,1.57
2022-08-20T20:12:58.127Z,1.60
2022-08-20T20:16:04.069Z,1.43
2022-08-20T20:19:25.897Z,1.70
2022-08-20T20:22:33.287Z,1.63
2022-08-20T20:25:41.851Z,1.83
2022-08-20T20:28:48.087Z,1.70
2022-08-20T20:31:54.129Z,1.97
2022-08-20T20:35:00.420Z,1.90
2022-08-20T20:38:09.222Z,2.10
2022-08-20T20:41:21.690Z,1.47
2022-08-20T20:44:27.701Z,1.63
2022-08-20T20:47:33.490Z,1.80
2022-08-20T20:50:39.581Z,2.37
2022-08-20T20:53:54.442Z,1.90
2022-08-20T20:57:01.162Z,1.83
2022-08-20T21:00:07.035Z,2.27
2022-08-20T21:03:10.037Z,1.97
2022-08-20T21:06:13.039Z,1.87
2022-08-20T21:09:18.646Z,1.70
2022-08-20T21:12:22.720Z,2.60
2022-08-20T21:15:26.827Z,2.67
2022-08-20T21:18:31.737Z,1.80
2022-08-20T21:21:35.546Z,2.30
2022-08-20T21:24:39.975Z,2.07
2022-08-20T21:27:46.449Z,2.47
2022-08-20T21:30:51.565Z,2.10
2022-08-20T21:34:01.726Z,2.10
2022-08-20T21:37:05.032Z,1.87
2022-08-20T21:40:11.155Z,1.83
2022-08-20T21:43:14.225Z,1.97
2022-08-20T21:46:17.666Z,1.90
2022-08-20T21:49:29.491Z,2.33
2022-08-20T21:52:32.511Z,2.10
2022-08-20T21:55:41.247Z,1.77
2022-08-20T21:58:45.806Z,1.83
2022-08-20T22:01:48.883Z,2.10
2022-08-20T22:04:51.915Z,2.00
2022-08-20T22:07:57.056Z,2.50
2022-08-20T22:11:02.260Z,2.20
2022-08-20T22:14:08.213Z,2.17
2022-08-20T22:17:11.226Z,2.60
2022-08-20T22:20:14.291Z,2.80
2022-08-20T22:23:17.467Z,2.50
2022-08-20T22:26:22.366Z,2.90
2022-08-20T22:29:30.427Z,2.43
2022-08-20T22:32:50.485Z,2.73
2022-08-20T22:35:57.529Z,2.67
2022-08-20T22:39:00.795Z,2.80
2022-08-20T22:42:05.691Z,2.50
2022-08-20T22:45:11.599Z,2.63
2022-08-20T22:48:19.907Z,2.67
2022-08-20T22:51:34.735Z,2.93
2022-08-20T22:54:38.921Z,2.60
2022-08-20T22:57:48.927Z,2.30
2022-08-20T23:00:52.170Z,2.43
2022-08-20T23:04:01.027Z,3.00
2022-08-20T23:07:05.191Z,2.77
2022-08-20T23:10:09.290Z,2.90
2022-08-20T23:13:13.657Z,2.53
2022-08-20T23:16:16.702Z,2.47
2022-08-20T23:19:22.413Z,3.07
2022-08-20T23:22:25.674Z,3.37
2022-08-20T23:25:29.117Z,3.40
2022-08-20T23:28:34.037Z,3.23
2022-08-20T23:31:37.053Z,3.47
2022-08-20T23:34:40.722Z,3.07
2022-08-20T23:37:48.407Z,3.50
2022-08-20T23:40:51.416Z,3.10
2022-08-20T23:43:55.772Z,2.97
2022-08-20T23:47:01.143Z,3.20
2022-08-20T23:50:05.342Z,3.00
2022-08-20T23:53:08.393Z,2.90
2022-08-20T23:56:11.690Z,2.53
2022-08-20T23:59:16.022Z,3.00
